Brewster, Colorado
Current Conditions -  °F | °C
As of 6:25 AM on Thursday 23 Oct 2014 (Local Time) from K1V6 Reporting Station
Clear Clear  
Wind Chill: 43°   Ceiling: Unl
Heat Index: 48°   Visibility: 10mi
Dew Point: 32°   Wind: 13mph
Humidity: 54%   Direction: 280°W
Pressure: 30.19"   Gusts: NA
Location:  38.3191°N, 105.161°W
Report Text: K1V6 231225Z AUTO 28011KT 10SM CLR 09/00 A3019 RMK AO2
Loading
Personal Weather Stations






























Interactive Weather Map
Tropical Storm Tracking
New forecast layout! Learn more

10-Day Weather Forecast

Advertisements
Track Severe Weather on mobile